createdAt,value
2018-03-23T00:00:11.815Z,4.72222222222
2018-03-23T00:00:23.933Z,4.66666666667
2018-03-23T00:00:36.074Z,4.66666666667
2018-03-23T00:00:48.212Z,4.66666666667
2018-03-23T00:01:00.367Z,4.72222222222
2018-03-23T00:01:12.550Z,4.66666666667
2018-03-23T00:01:24.714Z,4.66666666667
2018-03-23T00:01:36.847Z,4.66666666667
2018-03-23T00:01:49.000Z,4.72222222222
2018-03-23T00:02:01.132Z,4.66666666667
2018-03-23T00:02:13.312Z,4.66666666667
2018-03-23T00:02:25.455Z,4.66666666667
2018-03-23T00:02:37.588Z,4.66666666667
2018-03-23T00:02:49.732Z,4.66666666667
2018-03-23T00:03:01.909Z,4.66666666667
2018-03-23T00:03:14.053Z,4.66666666667
2018-03-23T00:03:26.197Z,4.66666666667
2018-03-23T00:03:38.344Z,4.66666666667
2018-03-23T00:03:50.476Z,4.66666666667
2018-03-23T00:04:02.616Z,4.66666666667
2018-03-23T00:04:14.755Z,4.66666666667
2018-03-23T00:04:26.908Z,4.66666666667
2018-03-23T00:04:39.052Z,4.66666666667
2018-03-23T00:04:51.229Z,4.66666666667
2018-03-23T00:05:03.364Z,4.66666666667
2018-03-23T00:05:15.485Z,4.66666666667
2018-03-23T00:05:27.610Z,4.66666666667
2018-03-23T00:05:39.758Z,4.66666666667
2018-03-23T00:05:51.897Z,4.66666666667
2018-03-23T00:06:04.058Z,4.66666666667
2018-03-23T00:06:16.198Z,4.66666666667
2018-03-23T00:06:28.351Z,4.66666666667
2018-03-23T00:06:40.481Z,4.66666666667
2018-03-23T00:06:52.635Z,4.66666666667
2018-03-23T00:07:04.817Z,4.66666666667
2018-03-23T00:07:17.016Z,4.66666666667
2018-03-23T00:07:29.149Z,4.66666666667
2018-03-23T00:07:41.281Z,4.66666666667
2018-03-23T00:07:53.535Z,4.66666666667
2018-03-23T00:08:05.738Z,4.66666666667
2018-03-23T00:08:17.900Z,4.66666666667
2018-03-23T00:08:30.040Z,4.66666666667
2018-03-23T00:08:42.188Z,4.66666666667
2018-03-23T00:08:54.322Z,4.66666666667
2018-03-23T00:09:06.479Z,4.66666666667
2018-03-23T00:09:18.625Z,4.61111111111
2018-03-23T00:09:30.788Z,4.66666666667
2018-03-23T00:09:42.995Z,4.66666666667
2018-03-23T00:09:55.131Z,4.66666666667
2018-03-23T00:10:07.286Z,4.66666666667
2018-03-23T00:10:19.470Z,4.66666666667
2018-03-23T00:10:31.601Z,4.66666666667
2018-03-23T00:10:43.826Z,4.66666666667
2018-03-23T00:10:55.956Z,4.66666666667
2018-03-23T00:11:08.103Z,4.66666666667
2018-03-23T00:11:20.438Z,4.66666666667
2018-03-23T00:11:32.572Z,4.66666666667
2018-03-23T00:11:44.713Z,4.66666666667
2018-03-23T00:11:56.871Z,4.66666666667
2018-03-23T00:12:09.040Z,4.61111111111
2018-03-23T00:12:21.176Z,4.66666666667
2018-03-23T00:12:33.321Z,4.66666666667
2018-03-23T00:12:45.697Z,4.66666666667
2018-03-23T00:12:57.843Z,4.66666666667
2018-03-23T00:13:09.973Z,4.66666666667
2018-03-23T00:13:22.097Z,4.66666666667
2018-03-23T00:13:34.231Z,4.66666666667
2018-03-23T00:13:46.389Z,4.66666666667
2018-03-23T00:13:58.527Z,4.66666666667
2018-03-23T00:14:10.665Z,4.61111111111
2018-03-23T00:14:22.795Z,4.66666666667
2018-03-23T00:14:34.935Z,4.66666666667
2018-03-23T00:14:47.075Z,4.66666666667
2018-03-23T00:14:59.255Z,4.66666666667
2018-03-23T00:15:11.389Z,4.66666666667
2018-03-23T00:15:23.514Z,4.66666666667
2018-03-23T00:15:35.709Z,4.66666666667
2018-03-23T00:15:47.853Z,4.66666666667
2018-03-23T00:16:00.001Z,4.66666666667
2018-03-23T00:16:12.333Z,4.66666666667
2018-03-23T00:16:24.504Z,4.66666666667
2018-03-23T00:16:36.645Z,4.66666666667
2018-03-23T00:16:48.785Z,4.66666666667
2018-03-23T00:17:00.938Z,4.66666666667
2018-03-23T00:17:13.069Z,4.66666666667
2018-03-23T00:17:25.270Z,4.66666666667
2018-03-23T00:17:37.405Z,4.66666666667
2018-03-23T00:17:49.559Z,4.66666666667
2018-03-23T00:18:01.694Z,4.66666666667
2018-03-23T00:18:13.824Z,4.66666666667
2018-03-23T00:18:25.968Z,4.66666666667
2018-03-23T00:18:38.098Z,4.66666666667
2018-03-23T00:18:50.237Z,4.66666666667
2018-03-23T00:19:02.394Z,4.66666666667
2018-03-23T00:19:14.801Z,4.66666666667
2018-03-23T00:19:26.954Z,4.61111111111
2018-03-23T00:19:39.086Z,4.66666666667
2018-03-23T00:19:51.214Z,4.66666666667
2018-03-23T00:20:03.356Z,4.66666666667
2018-03-23T00:20:15.492Z,4.61111111111
2018-03-23T00:20:27.633Z,4.66666666667
2018-03-23T00:20:39.820Z,4.66666666667
2018-03-23T00:20:51.951Z,4.66666666667
2018-03-23T00:21:04.252Z,4.66666666667
2018-03-23T00:21:16.408Z,4.66666666667
2018-03-23T00:21:28.566Z,4.66666666667
2018-03-23T00:21:40.753Z,4.66666666667
2018-03-23T00:21:52.892Z,4.66666666667
2018-03-23T00:22:05.027Z,4.66666666667
2018-03-23T00:22:17.151Z,4.66666666667
2018-03-23T00:22:29.278Z,4.66666666667
2018-03-23T00:22:41.425Z,4.66666666667
2018-03-23T00:22:53.568Z,4.66666666667
2018-03-23T00:23:05.700Z,4.66666666667
2018-03-23T00:23:17.838Z,4.66666666667
2018-03-23T00:23:29.965Z,4.66666666667
2018-03-23T00:23:42.107Z,4.66666666667
2018-03-23T00:23:54.241Z,4.61111111111
2018-03-23T00:24:06.383Z,4.61111111111
2018-03-23T00:24:18.531Z,4.61111111111
2018-03-23T00:24:30.744Z,4.66666666667
2018-03-23T00:24:42.884Z,4.61111111111
2018-03-23T00:24:55.015Z,4.66666666667
2018-03-23T00:25:07.150Z,4.61111111111
2018-03-23T00:25:19.287Z,4.66666666667
2018-03-23T00:25:31.418Z,4.66666666667
2018-03-23T00:25:43.558Z,4.66666666667
2018-03-23T00:25:55.685Z,4.61111111111
2018-03-23T00:26:07.874Z,4.66666666667
2018-03-23T00:26:20.007Z,4.66666666667
2018-03-23T00:26:32.156Z,4.66666666667
2018-03-23T00:26:44.332Z,4.66666666667
2018-03-23T00:26:56.478Z,4.66666666667
2018-03-23T00:27:08.616Z,4.66666666667
2018-03-23T00:27:20.746Z,4.66666666667
2018-03-23T00:27:32.871Z,4.66666666667
2018-03-23T00:27:45.419Z,4.66666666667
2018-03-23T00:27:57.553Z,4.66666666667
2018-03-23T00:28:09.707Z,4.66666666667
2018-03-23T00:28:21.841Z,4.66666666667
2018-03-23T00:28:33.968Z,4.66666666667
2018-03-23T00:28:46.160Z,4.66666666667
2018-03-23T00:28:58.317Z,4.66666666667
2018-03-23T00:29:10.455Z,4.66666666667
2018-03-23T00:29:22.597Z,4.66666666667
2018-03-23T00:29:34.776Z,4.66666666667
2018-03-23T00:29:46.930Z,4.66666666667
2018-03-23T00:29:59.056Z,4.61111111111
2018-03-23T00:30:11.195Z,4.66666666667
2018-03-23T00:30:23.354Z,4.66666666667
2018-03-23T00:30:35.548Z,4.66666666667
2018-03-23T00:30:47.679Z,4.66666666667
2018-03-23T00:30:59.798Z,4.66666666667
2018-03-23T00:31:11.936Z,4.66666666667
2018-03-23T00:31:24.067Z,4.66666666667
2018-03-23T00:31:36.198Z,4.66666666667
2018-03-23T00:31:48.331Z,4.66666666667
2018-03-23T00:32:00.481Z,4.66666666667
2018-03-23T00:32:12.611Z,4.66666666667
2018-03-23T00:32:24.911Z,4.66666666667
2018-03-23T00:32:37.100Z,4.66666666667
2018-03-23T00:32:49.259Z,4.66666666667
2018-03-23T00:33:01.444Z,4.66666666667
2018-03-23T00:33:13.583Z,4.66666666667
2018-03-23T00:33:25.715Z,4.66666666667
2018-03-23T00:33:37.858Z,4.66666666667
2018-03-23T00:33:50.004Z,4.66666666667
2018-03-23T00:34:02.168Z,4.66666666667
2018-03-23T00:34:14.312Z,4.66666666667
2018-03-23T00:34:26.437Z,4.66666666667
2018-03-23T00:34:38.573Z,4.66666666667
2018-03-23T00:34:50.755Z,4.66666666667
2018-03-23T00:35:02.887Z,4.66666666667
2018-03-23T00:35:15.014Z,4.66666666667
2018-03-23T00:35:27.156Z,4.61111111111
2018-03-23T00:35:39.301Z,4.66666666667
2018-03-23T00:35:51.446Z,4.66666666667
2018-03-23T00:36:03.591Z,4.66666666667
2018-03-23T00:36:15.725Z,4.66666666667
2018-03-23T00:36:27.849Z,4.66666666667
2018-03-23T00:36:39.985Z,4.66666666667
2018-03-23T00:36:52.117Z,4.66666666667
2018-03-23T00:37:04.259Z,4.66666666667
2018-03-23T00:37:16.445Z,4.61111111111
2018-03-23T00:37:28.736Z,4.66666666667
2018-03-23T00:37:40.875Z,4.66666666667
2018-03-23T00:37:53.017Z,4.66666666667
2018-03-23T00:38:05.145Z,4.61111111111
2018-03-23T00:38:17.288Z,4.61111111111
2018-03-23T00:38:29.417Z,4.61111111111
2018-03-23T00:38:41.605Z,4.66666666667
2018-03-23T00:38:53.731Z,4.66666666667
2018-03-23T00:39:05.867Z,4.66666666667
2018-03-23T00:39:18.021Z,4.61111111111
2018-03-23T00:39:30.161Z,4.66666666667
2018-03-23T00:39:42.288Z,4.61111111111
2018-03-23T00:39:54.415Z,4.61111111111
2018-03-23T00:40:06.568Z,4.66666666667
2018-03-23T00:40:18.725Z,4.61111111111
2018-03-23T00:40:30.872Z,4.66666666667
2018-03-23T00:40:43.009Z,4.66666666667
2018-03-23T00:40:55.186Z,4.61111111111
2018-03-23T00:41:07.456Z,4.61111111111
2018-03-23T00:41:19.601Z,4.66666666667
2018-03-23T00:41:31.754Z,4.66666666667
2018-03-23T00:41:43.887Z,4.61111111111
2018-03-23T00:41:56.043Z,4.66666666667
2018-03-23T00:42:08.191Z,4.66666666667
2018-03-23T00:42:20.338Z,4.66666666667
2018-03-23T00:42:32.475Z,4.66666666667
2018-03-23T00:42:44.674Z,4.61111111111
2018-03-23T00:42:56.799Z,4.61111111111
2018-03-23T00:43:08.936Z,4.61111111111
2018-03-23T00:43:21.074Z,4.61111111111
2018-03-23T00:43:33.224Z,4.66666666667
2018-03-23T00:43:45.396Z,4.61111111111
2018-03-23T00:43:57.528Z,4.66666666667
2018-03-23T00:44:09.673Z,4.61111111111
2018-03-23T00:44:21.881Z,4.66666666667
2018-03-23T00:44:34.088Z,4.61111111111
2018-03-23T00:44:46.238Z,4.66666666667
2018-03-23T00:44:58.366Z,4.66666666667
2018-03-23T00:45:10.512Z,4.61111111111
2018-03-23T00:45:22.657Z,4.61111111111
2018-03-23T00:45:34.787Z,4.66666666667
2018-03-23T00:45:46.928Z,4.61111111111
2018-03-23T00:45:59.066Z,4.61111111111
2018-03-23T00:46:11.235Z,4.61111111111
2018-03-23T00:46:23.375Z,4.61111111111
2018-03-23T00:46:35.742Z,4.61111111111
2018-03-23T00:46:47.872Z,4.61111111111
2018-03-23T00:46:59.999Z,4.61111111111
2018-03-23T00:47:12.162Z,4.61111111111
2018-03-23T00:47:24.460Z,4.61111111111
2018-03-23T00:47:36.608Z,4.55555555556
2018-03-23T00:47:48.749Z,4.55555555556
2018-03-23T00:48:01.007Z,4.55555555556
2018-03-23T00:48:13.155Z,4.5
2018-03-23T00:48:25.365Z,4.5
2018-03-23T00:48:37.498Z,4.5
2018-03-23T00:48:49.653Z,4.44444444444
2018-03-23T00:49:01.793Z,4.44444444444
2018-03-23T00:49:13.929Z,4.44444444444
2018-03-23T00:49:26.059Z,4.38888888889
2018-03-23T00:49:38.188Z,4.38888888889
2018-03-23T00:49:50.319Z,4.33333333333
2018-03-23T00:50:02.470Z,4.38888888889
2018-03-23T00:50:14.626Z,4.33333333333
2018-03-23T00:50:26.768Z,4.33333333333
2018-03-23T00:50:38.916Z,4.33333333333
2018-03-23T00:50:51.064Z,4.27777777778
2018-03-23T00:51:03.217Z,4.27777777778
2018-03-23T00:51:15.368Z,4.27777777778
2018-03-23T00:51:27.521Z,4.22222222222
2018-03-23T00:51:39.671Z,4.22222222222
2018-03-23T00:51:51.816Z,4.22222222222
2018-03-23T00:52:03.991Z,4.22222222222
2018-03-23T00:52:16.137Z,4.22222222222
2018-03-23T00:52:28.285Z,4.22222222222
2018-03-23T00:52:40.485Z,4.22222222222
2018-03-23T00:52:52.649Z,4.16666666667
2018-03-23T00:53:04.843Z,4.16666666667
2018-03-23T00:53:16.979Z,4.16666666667
2018-03-23T00:53:29.121Z,4.16666666667
2018-03-23T00:53:41.293Z,4.16666666667
2018-03-23T00:53:53.479Z,4.16666666667
2018-03-23T00:54:05.615Z,4.16666666667
2018-03-23T00:54:17.755Z,4.16666666667
2018-03-23T00:54:29.893Z,4.11111111111
2018-03-23T00:54:42.036Z,4.11111111111
2018-03-23T00:54:54.222Z,4.11111111111
2018-03-23T00:55:06.402Z,4.11111111111
2018-03-23T00:55:18.550Z,4.11111111111
2018-03-23T00:55:30.988Z,4.05555555556
2018-03-23T00:55:43.180Z,4.05555555556
2018-03-23T00:55:55.333Z,4.05555555556
2018-03-23T00:56:07.471Z,4.05555555556
2018-03-23T00:56:19.607Z,4.05555555556
2018-03-23T00:56:31.742Z,4.05555555556
2018-03-23T00:56:43.938Z,4.05555555556
2018-03-23T00:56:56.098Z,4
2018-03-23T00:57:08.238Z,4
2018-03-23T00:57:20.421Z,4
2018-03-23T00:57:32.795Z,4
2018-03-23T00:57:44.942Z,4
2018-03-23T00:57:57.102Z,3.94444444444
2018-03-23T00:58:09.255Z,3.94444444444
2018-03-23T00:58:21.413Z,3.94444444444
2018-03-23T00:58:33.619Z,3.94444444444
2018-03-23T00:58:45.755Z,3.94444444444
2018-03-23T00:58:57.890Z,3.88888888889
2018-03-23T00:59:10.030Z,3.88888888889
2018-03-23T00:59:22.187Z,3.88888888889
2018-03-23T00:59:34.666Z,3.88888888889
2018-03-23T00:59:46.831Z,3.88888888889
2018-03-23T00:59:58.976Z,3.88888888889
2018-03-23T01:00:11.164Z,3.88888888889
2018-03-23T01:00:23.300Z,3.88888888889
2018-03-23T01:00:35.428Z,3.83333333333
2018-03-23T01:00:47.571Z,3.83333333333
2018-03-23T01:00:59.697Z,3.83333333333
2018-03-23T01:01:11.845Z,3.83333333333
2018-03-23T01:01:23.998Z,3.77777777778
2018-03-23T01:01:36.138Z,3.77777777778
2018-03-23T01:01:48.273Z,3.77777777778
2018-03-23T01:02:00.429Z,3.77777777778
2018-03-23T01:02:12.580Z,3.72222222222
2018-03-23T01:02:24.719Z,3.77777777778
2018-03-23T01:02:36.866Z,3.72222222222
2018-03-23T01:02:48.999Z,3.72222222222
2018-03-23T01:03:01.140Z,3.72222222222
2018-03-23T01:03:13.331Z,3.72222222222
2018-03-23T01:03:25.476Z,3.72222222222
2018-03-23T01:03:37.643Z,3.66666666667
2018-03-23T01:03:49.797Z,3.72222222222
2018-03-23T01:04:01.931Z,3.66666666667
2018-03-23T01:04:14.084Z,3.66666666667
2018-03-23T01:04:26.227Z,3.66666666667
2018-03-23T01:04:38.376Z,3.66666666667
2018-03-23T01:04:50.515Z,3.66666666667
2018-03-23T01:05:02.644Z,3.66666666667
2018-03-23T01:05:14.808Z,3.66666666667
2018-03-23T01:05:26.957Z,3.66666666667
2018-03-23T01:05:39.116Z,3.66666666667
2018-03-23T01:05:51.249Z,3.61111111111
2018-03-23T01:06:03.382Z,3.61111111111
2018-03-23T01:06:15.516Z,3.61111111111
2018-03-23T01:06:27.754Z,3.61111111111
2018-03-23T01:06:40.176Z,3.61111111111
2018-03-23T01:06:52.312Z,3.61111111111
2018-03-23T01:07:04.469Z,3.55555555556
2018-03-23T01:07:16.606Z,3.61111111111
2018-03-23T01:07:28.742Z,3.55555555556
2018-03-23T01:07:40.882Z,3.55555555556
2018-03-23T01:07:53.043Z,3.55555555556
2018-03-23T01:08:05.186Z,3.55555555556
2018-03-23T01:08:17.339Z,3.55555555556
2018-03-23T01:08:29.544Z,3.55555555556
2018-03-23T01:08:41.729Z,3.55555555556
2018-03-23T01:08:53.892Z,3.55555555556
2018-03-23T01:09:06.042Z,3.55555555556
2018-03-23T01:09:18.181Z,3.55555555556
2018-03-23T01:09:30.324Z,3.55555555556
2018-03-23T01:09:42.474Z,3.55555555556
2018-03-23T01:09:54.618Z,3.5
2018-03-23T01:10:06.767Z,3.55555555556
2018-03-23T01:10:18.906Z,3.5
2018-03-23T01:10:31.068Z,3.5
2018-03-23T01:10:43.217Z,3.5
2018-03-23T01:10:55.381Z,3.5
2018-03-23T01:11:07.518Z,3.5
2018-03-23T01:11:19.646Z,3.5
2018-03-23T01:11:32.001Z,3.5
2018-03-23T01:11:44.156Z,3.5
2018-03-23T01:11:56.290Z,3.5
2018-03-23T01:12:08.432Z,3.5
2018-03-23T01:12:20.622Z,3.5
2018-03-23T01:12:32.751Z,3.5
2018-03-23T01:12:45.023Z,3.44444444444
2018-03-23T01:12:57.176Z,3.5
2018-03-23T01:13:09.319Z,3.44444444444
2018-03-23T01:13:21.452Z,3.44444444444
2018-03-23T01:13:33.647Z,3.44444444444
2018-03-23T01:13:46.038Z,3.5
2018-03-23T01:13:58.182Z,3.44444444444
2018-03-23T01:14:10.338Z,3.44444444444
2018-03-23T01:14:22.551Z,3.44444444444
2018-03-23T01:14:34.923Z,3.5
2018-03-23T01:14:47.275Z,3.44444444444
2018-03-23T01:14:59.412Z,3.5
2018-03-23T01:15:11.553Z,3.44444444444
2018-03-23T01:15:23.705Z,3.44444444444
2018-03-23T01:15:35.840Z,3.44444444444
2018-03-23T01:15:47.996Z,3.44444444444
2018-03-23T01:16:00.130Z,3.44444444444
2018-03-23T01:16:12.258Z,3.44444444444
2018-03-23T01:16:24.414Z,3.44444444444
2018-03-23T01:16:36.567Z,3.44444444444
2018-03-23T01:16:48.706Z,3.44444444444
2018-03-23T01:17:01.047Z,3.44444444444
2018-03-23T01:17:13.237Z,3.44444444444
2018-03-23T01:17:25.384Z,3.44444444444
2018-03-23T01:17:37.523Z,3.44444444444
2018-03-23T01:17:49.668Z,3.44444444444
2018-03-23T01:18:01.808Z,3.44444444444
2018-03-23T01:18:13.959Z,3.44444444444
2018-03-23T01:18:26.100Z,3.44444444444
2018-03-23T01:18:38.247Z,3.44444444444
2018-03-23T01:18:50.377Z,3.44444444444
2018-03-23T01:19:02.564Z,3.44444444444
2018-03-23T01:19:14.700Z,3.44444444444
2018-03-23T01:19:26.883Z,3.44444444444
2018-03-23T01:19:39.024Z,3.44444444444
2018-03-23T01:19:51.162Z,3.44444444444
2018-03-23T01:20:03.322Z,3.44444444444
2018-03-23T01:20:15.455Z,3.44444444444
2018-03-23T01:20:27.599Z,3.44444444444
2018-03-23T01:20:39.824Z,3.44444444444
2018-03-23T01:20:51.958Z,3.38888888889
2018-03-23T01:21:04.094Z,3.44444444444
2018-03-23T01:21:16.223Z,3.38888888889
2018-03-23T01:21:28.363Z,3.38888888889
2018-03-23T01:21:40.513Z,3.38888888889
2018-03-23T01:21:52.806Z,3.38888888889
2018-03-23T01:22:05.002Z,3.38888888889
2018-03-23T01:22:17.146Z,3.44444444444
2018-03-23T01:22:29.333Z,3.38888888889
2018-03-23T01:22:41.520Z,3.38888888889
2018-03-23T01:22:53.661Z,3.38888888889
2018-03-23T01:23:05.816Z,3.44444444444
2018-03-23T01:23:17.960Z,3.38888888889
2018-03-23T01:23:30.101Z,3.38888888889
2018-03-23T01:23:42.255Z,3.38888888889
2018-03-23T01:23:54.392Z,3.38888888889
2018-03-23T01:24:06.586Z,3.38888888889
2018-03-23T01:24:18.787Z,3.38888888889
2018-03-23T01:24:30.923Z,3.38888888889
2018-03-23T01:24:43.072Z,3.38888888889
2018-03-23T01:24:55.206Z,3.38888888889
2018-03-23T01:25:07.349Z,3.38888888889
2018-03-23T01:25:19.497Z,3.38888888889
2018-03-23T01:25:31.641Z,3.38888888889
2018-03-23T01:25:43.787Z,3.38888888889
2018-03-23T01:25:55.941Z,3.38888888889
2018-03-23T01:26:08.086Z,3.38888888889
2018-03-23T01:26:20.229Z,3.38888888889
2018-03-23T01:26:32.372Z,3.38888888889
2018-03-23T01:26:44.535Z,3.38888888889
2018-03-23T01:26:56.681Z,3.38888888889
2018-03-23T01:27:08.863Z,3.38888888889
2018-03-23T01:27:21.013Z,3.38888888889
2018-03-23T01:27:33.139Z,3.38888888889
2018-03-23T01:27:45.295Z,3.33333333333
2018-03-23T01:27:57.744Z,3.38888888889
2018-03-23T01:28:09.879Z,3.33333333333
2018-03-23T01:28:22.074Z,3.33333333333
2018-03-23T01:28:34.256Z,3.33333333333
2018-03-23T01:28:46.395Z,3.33333333333
2018-03-23T01:28:58.519Z,3.33333333333
2018-03-23T01:29:10.653Z,3.33333333333
2018-03-23T01:29:22.781Z,3.33333333333
2018-03-23T01:29:34.977Z,3.33333333333
2018-03-23T01:29:47.137Z,3.33333333333
2018-03-23T01:29:59.272Z,3.33333333333
2018-03-23T01:30:11.461Z,3.33333333333
2018-03-23T01:30:23.592Z,3.33333333333
2018-03-23T01:30:35.740Z,3.33333333333
2018-03-23T01:30:47.881Z,3.33333333333
2018-03-23T01:31:00.043Z,3.33333333333
2018-03-23T01:31:12.216Z,3.33333333333
2018-03-23T01:31:24.371Z,3.33333333333
2018-03-23T01:31:36.601Z,3.27777777778
2018-03-23T01:31:48.754Z,3.33333333333
2018-03-23T01:32:00.891Z,3.33333333333
2018-03-23T01:32:13.032Z,3.27777777778
2018-03-23T01:32:25.270Z,3.27777777778
2018-03-23T01:32:37.399Z,3.27777777778
2018-03-23T01:32:49.533Z,3.27777777778
2018-03-23T01:33:01.680Z,3.27777777778
2018-03-23T01:33:13.838Z,3.33333333333
2018-03-23T01:33:25.974Z,3.33333333333
2018-03-23T01:33:38.160Z,3.33333333333
2018-03-23T01:33:50.287Z,3.33333333333
2018-03-23T01:34:02.435Z,3.33333333333
2018-03-23T01:34:14.588Z,3.33333333333
2018-03-23T01:34:26.727Z,3.27777777778
2018-03-23T01:34:38.875Z,3.27777777778
2018-03-23T01:34:51.044Z,3.33333333333
2018-03-23T01:35:03.205Z,3.27777777778
2018-03-23T01:35:15.358Z,3.27777777778
2018-03-23T01:35:27.524Z,3.27777777778
2018-03-23T01:35:39.646Z,3.27777777778
2018-03-23T01:35:51.798Z,3.27777777778
2018-03-23T01:36:03.988Z,3.33333333333
2018-03-23T01:36:16.129Z,3.27777777778
2018-03-23T01:36:28.289Z,3.27777777778
2018-03-23T01:36:40.758Z,3.27777777778
2018-03-23T01:36:52.899Z,3.27777777778
2018-03-23T01:37:05.035Z,3.27777777778
2018-03-23T01:37:17.231Z,3.33333333333
2018-03-23T01:37:29.556Z,3.27777777778
2018-03-23T01:37:41.722Z,3.27777777778
2018-03-23T01:37:53.871Z,3.33333333333
2018-03-23T01:38:06.014Z,3.27777777778
2018-03-23T01:38:18.149Z,3.27777777778
2018-03-23T01:38:30.332Z,3.27777777778
2018-03-23T01:38:42.479Z,3.27777777778
2018-03-23T01:38:54.632Z,3.33333333333
2018-03-23T01:39:06.781Z,3.27777777778
2018-03-23T01:39:19.039Z,3.27777777778
2018-03-23T01:39:31.238Z,3.27777777778
2018-03-23T01:39:43.373Z,3.27777777778
2018-03-23T01:39:55.563Z,3.27777777778
2018-03-23T01:40:07.719Z,3.27777777778
2018-03-23T01:40:19.860Z,3.27777777778
2018-03-23T01:40:32.016Z,3.27777777778
2018-03-23T01:40:44.177Z,3.27777777778
2018-03-23T01:40:56.408Z,3.27777777778
2018-03-23T01:41:08.728Z,3.27777777778
2018-03-23T01:41:20.878Z,3.27777777778
2018-03-23T01:41:33.017Z,3.27777777778
2018-03-23T01:41:45.172Z,3.27777777778
2018-03-23T01:41:57.321Z,3.27777777778
2018-03-23T01:42:09.450Z,3.27777777778
2018-03-23T01:42:21.597Z,3.27777777778
2018-03-23T01:42:33.729Z,3.27777777778
2018-03-23T01:42:45.868Z,3.27777777778
2018-03-23T01:42:58.016Z,3.27777777778
2018-03-23T01:43:10.164Z,3.27777777778
2018-03-23T01:43:22.299Z,3.27777777778
2018-03-23T01:43:34.448Z,3.27777777778
2018-03-23T01:43:46.630Z,3.27777777778
2018-03-23T01:43:58.825Z,3.27777777778
2018-03-23T01:44:10.980Z,3.27777777778
2018-03-23T01:44:23.118Z,3.27777777778
2018-03-23T01:44:35.266Z,3.27777777778
2018-03-23T01:44:47.408Z,3.27777777778
2018-03-23T01:44:59.537Z,3.27777777778
2018-03-23T01:45:11.683Z,3.27777777778
2018-03-23T01:45:23.822Z,3.27777777778
2018-03-23T01:45:35.956Z,3.27777777778
2018-03-23T01:45:48.090Z,3.27777777778
2018-03-23T01:46:00.312Z,3.27777777778
2018-03-23T01:46:12.484Z,3.27777777778
2018-03-23T01:46:24.635Z,3.27777777778
2018-03-23T01:46:36.795Z,3.27777777778
2018-03-23T01:46:48.932Z,3.27777777778
2018-03-23T01:47:01.088Z,3.22222222222
2018-03-23T01:47:13.226Z,3.22222222222
2018-03-23T01:47:25.491Z,3.22222222222
2018-03-23T01:47:37.624Z,3.22222222222
2018-03-23T01:47:49.761Z,3.22222222222
2018-03-23T01:48:02.007Z,3.22222222222
2018-03-23T01:48:14.162Z,3.27777777778
2018-03-23T01:48:26.308Z,3.22222222222
2018-03-23T01:48:38.438Z,3.22222222222
2018-03-23T01:48:50.594Z,3.22222222222
2018-03-23T01:49:02.744Z,3.22222222222
2018-03-23T01:49:14.892Z,3.27777777778
2018-03-23T01:49:27.031Z,3.22222222222
2018-03-23T01:49:39.179Z,3.22222222222
2018-03-23T01:49:51.333Z,3.22222222222
2018-03-23T01:50:03.478Z,3.22222222222
2018-03-23T01:50:15.690Z,3.22222222222
2018-03-23T01:50:27.869Z,3.22222222222
2018-03-23T01:50:40.007Z,3.22222222222
2018-03-23T01:50:52.155Z,3.16666666667
2018-03-23T01:51:04.316Z,3.16666666667
2018-03-23T01:51:16.457Z,3.16666666667
2018-03-23T01:51:28.603Z,3.16666666667
2018-03-23T01:51:40.753Z,3.16666666667
2018-03-23T01:51:52.883Z,3.16666666667
2018-03-23T01:52:05.033Z,3.22222222222
2018-03-23T01:52:17.199Z,3.16666666667
2018-03-23T01:52:29.340Z,3.22222222222
2018-03-23T01:52:41.486Z,3.16666666667
2018-03-23T01:52:53.741Z,3.16666666667
2018-03-23T01:53:06.272Z,3.16666666667
2018-03-23T01:53:18.416Z,3.16666666667
2018-03-23T01:53:30.543Z,3.16666666667
2018-03-23T01:53:42.695Z,3.16666666667
2018-03-23T01:53:54.835Z,3.16666666667
2018-03-23T01:54:06.970Z,3.16666666667
2018-03-23T01:54:19.125Z,3.16666666667
2018-03-23T01:54:31.265Z,3.16666666667
2018-03-23T01:54:43.404Z,3.16666666667
2018-03-23T01:54:55.590Z,3.16666666667
2018-03-23T01:55:07.737Z,3.16666666667
2018-03-23T01:55:19.908Z,3.16666666667
2018-03-23T01:55:32.099Z,3.11111111111
2018-03-23T01:55:44.239Z,3.16666666667
2018-03-23T01:55:56.374Z,3.16666666667
2018-03-23T01:56:08.528Z,3.11111111111
2018-03-23T01:56:20.692Z,3.11111111111
2018-03-23T01:56:32.842Z,3.11111111111
2018-03-23T01:56:44.977Z,3.11111111111
2018-03-23T01:56:57.104Z,3.11111111111
2018-03-23T01:57:09.248Z,3.16666666667
2018-03-23T01:57:21.717Z,3.11111111111
2018-03-23T01:57:33.851Z,3.16666666667
2018-03-23T01:57:45.985Z,3.11111111111
2018-03-23T01:57:58.187Z,3.16666666667
2018-03-23T01:58:10.477Z,3.11111111111
2018-03-23T01:58:22.605Z,3.16666666667
2018-03-23T01:58:34.738Z,3.11111111111
2018-03-23T01:58:46.887Z,3.11111111111
2018-03-23T01:58:59.059Z,3.16666666667
2018-03-23T01:59:11.293Z,3.16666666667
2018-03-23T01:59:23.492Z,3.11111111111
2018-03-23T01:59:35.666Z,3.11111111111
2018-03-23T01:59:47.799Z,3.16666666667
2018-03-23T01:59:59.938Z,3.11111111111
2018-03-23T02:00:12.096Z,3.11111111111
2018-03-23T02:00:24.250Z,3.16666666667
2018-03-23T02:00:36.384Z,3.11111111111
2018-03-23T02:00:48.675Z,3.11111111111
2018-03-23T02:01:00.814Z,3.11111111111
2018-03-23T02:01:12.955Z,3.11111111111
2018-03-23T02:01:25.100Z,3.11111111111
2018-03-23T02:01:37.297Z,3.11111111111
2018-03-23T02:01:49.426Z,3.11111111111
2018-03-23T02:02:01.581Z,3.11111111111
2018-03-23T02:02:13.724Z,3.11111111111
2018-03-23T02:02:25.918Z,3.11111111111
2018-03-23T02:02:38.052Z,3.11111111111
2018-03-23T02:02:50.186Z,3.11111111111
2018-03-23T02:03:02.317Z,3.11111111111
2018-03-23T02:03:14.480Z,3.11111111111
2018-03-23T02:03:26.803Z,3.11111111111
2018-03-23T02:03:39.056Z,3.11111111111
2018-03-23T02:03:51.215Z,3.11111111111
2018-03-23T02:04:03.387Z,3.11111111111
2018-03-23T02:04:15.574Z,3.11111111111
2018-03-23T02:04:27.801Z,3.11111111111
2018-03-23T02:04:39.957Z,3.11111111111
2018-03-23T02:04:52.090Z,3.11111111111
2018-03-23T02:05:04.233Z,3.11111111111
2018-03-23T02:05:16.381Z,3.11111111111
2018-03-23T02:05:28.525Z,3.11111111111
2018-03-23T02:05:40.716Z,3.11111111111
2018-03-23T02:05:53.111Z,3.11111111111